Time;durP1;ratioP1;P1;durP2;ratioP2;P2;SDS_P1;SDS_P2;PMS_P1;PMS_P2;Temp;Humidity;BMP_temperature;BMP_pressure;BME280_temperature;BME280_humidity;BME280_pressure;Samples;Min_cycle;Max_cycle;Signal;HPM_P1;HPM_P2
2023/04/23 00:00:10;;;;;;;;;;;333.20;2329.60;;;;;;5041205;28;19920;-71
2023/04/23 00:02:37;;;;;;;;;;;333.00;2329.60;;;;;;5040293;28;20446;-71
2023/04/23 00:05:04;;;;;;;;;;;332.90;2329.60;;;;;;5032349;28;19996;-78
2023/04/23 00:07:31;;;;;;;;;;;332.80;2329.60;;;;;;5035369;28;19954;-71
2023/04/23 00:09:57;;;;;;;;;;;332.80;2329.60;;;;;;5035504;28;19952;-71
2023/04/23 00:12:23;;;;;;;;;;;332.90;2329.60;;;;;;5035598;28;19951;-71
2023/04/23 00:14:48;;;;;;;;;;;333.10;2329.60;;;;;;5035778;28;19944;-71
2023/04/23 00:17:14;;;;;;;;;;;333.20;2329.60;;;;;;5035395;28;20424;-71
2023/04/23 00:19:40;;;;;;;;;;;333.30;2329.60;;;;;;5035172;28;19919;-81
2023/04/23 00:22:05;;;;;;;;;;;333.40;2329.60;;;;;;5035633;28;19951;-71
2023/04/23 00:24:33;;;;;;;;;;;333.40;2329.60;;;;;;5035212;28;19916;-71
2023/04/23 00:26:58;;;;;;;;;;;333.40;2329.60;;;;;;5034367;28;20341;-71
2023/04/23 00:29:24;;;;;;;;;;;333.20;2329.60;;;;;;5034402;28;19963;-71
2023/04/23 00:31:49;;;;;;;;;;;333.10;2329.60;;;;;;5034097;28;19912;-71
2023/04/23 00:34:15;;;;;;;;;;;333.00;2329.60;;;;;;5031465;28;19920;-71
2023/04/23 00:36:40;;;;;;;;;;;332.80;2329.60;;;;;;5034264;28;20039;-71
2023/04/23 00:39:06;;;;;;;;;;;332.80;2329.60;;;;;;5034099;28;20388;-71
2023/04/23 00:41:32;;;;;;;;;;;308.10;2304.00;;;;;;5033898;28;19905;-71
2023/04/23 00:43:59;;;;;;;;;;;332.80;2329.60;;;;;;5034092;28;19916;-71
2023/04/23 00:46:25;;;;;;;;;;;332.90;2329.60;;;;;;5034101;28;19912;-71
2023/04/23 00:48:51;;;;;;;;;;;333.00;2329.60;;;;;;5034269;28;19905;-80
2023/04/23 00:51:16;;;;;;;;;;;333.00;2329.60;;;;;;5031275;28;19905;-71
2023/04/23 00:53:42;;;;;;;;;;;333.00;2329.60;;;;;;5033961;28;19959;-77
2023/04/23 00:56:08;;;;;;;;;;;333.00;2329.60;;;;;;5034030;28;19958;-72
2023/04/23 00:58:34;;;;;;;;;;;333.10;2329.60;;;;;;5033741;28;19963;-71
2023/04/23 01:01:03;;;;;;;;;;;333.20;2329.60;;;;;;5033876;28;19909;-72
2023/04/23 01:03:30;;;;;;;;;;;333.30;2329.60;;;;;;5034422;28;19909;-72
2023/04/23 01:05:56;;;;;;;;;;;333.50;2329.60;;;;;;5033927;28;19913;-79
2023/04/23 01:08:22;;;;;;;;;;;333.60;2329.60;;;;;;5034045;28;19912;-78
2023/04/23 01:10:48;;;;;;;;;;;333.60;2329.60;;;;;;5034075;28;19905;-73
2023/04/23 01:13:13;;;;;;;;;;;333.40;2329.60;;;;;;5033568;28;20370;-71
2023/04/23 01:15:39;;;;;;;;;;;333.30;2329.60;;;;;;5033672;28;19912;-73
2023/04/23 01:18:06;;;;;;;;;;;333.30;2329.60;;;;;;5033583;28;19948;-72
2023/04/23 01:20:33;;;;;;;;;;;333.30;2329.60;;;;;;5033474;28;19913;-71
2023/04/23 01:22:58;;;;;;;;;;;333.30;2329.60;;;;;;5030932;28;19905;-74
2023/04/23 01:25:24;;;;;;;;;;;333.40;2329.60;;;;;;5033431;28;19912;-71
2023/04/23 01:27:50;;;;;;;;;;;333.40;2329.60;;;;;;5033187;28;19913;-71
2023/04/23 01:30:16;;;;;;;;;;;333.40;2329.60;;;;;;5033073;28;19928;-72
2023/04/23 01:32:42;;;;;;;;;;;333.30;2329.60;;;;;;5032200;28;19960;-71
2023/04/23 01:35:07;;;;;;;;;;;333.30;2329.60;;;;;;5033061;28;19905;-71
2023/04/23 01:37:34;;;;;;;;;;;333.20;2329.60;;;;;;5033325;28;19975;-71
2023/04/23 01:40:00;;;;;;;;;;;333.10;2329.60;;;;;;5030383;28;20381;-71
2023/04/23 01:42:25;;;;;;;;;;;333.00;2329.60;;;;;;5033118;28;19905;-71
2023/04/23 01:44:51;;;;;;;;;;;332.90;2329.60;;;;;;5033274;28;19909;-80
2023/04/23 01:47:17;;;;;;;;;;;332.90;2329.60;;;;;;5032953;28;19905;-71
2023/04/23 01:49:43;;;;;;;;;;;332.90;2329.60;;;;;;5032864;28;19905;-71
2023/04/23 01:52:10;;;;;;;;;;;333.00;2329.60;;;;;;5033043;28;19916;-72
2023/04/23 01:54:35;;;;;;;;;;;332.90;2329.60;;;;;;5032897;28;20404;-72
2023/04/23 01:57:01;;;;;;;;;;;333.00;2329.60;;;;;;5032812;28;19952;-71
2023/04/23 01:59:27;;;;;;;;;;;333.20;2329.60;;;;;;5032911;28;20005;-81
2023/04/23 02:01:52;;;;;;;;;;;333.30;2329.60;;;;;;5032916;28;20369;-71
2023/04/23 02:04:18;;;;;;;;;;;333.40;2329.60;;;;;;5033115;28;19909;-71
2023/04/23 02:06:46;;;;;;;;;;;333.40;2329.60;;;;;;5032838;28;19909;-71
2023/04/23 02:09:11;;;;;;;;;;;333.50;2329.60;;;;;;5032944;28;20009;-79
2023/04/23 02:11:37;;;;;;;;;;;333.60;2329.60;;;;;;5033023;28;19967;-72
2023/04/23 02:14:03;;;;;;;;;;;333.50;2329.60;;;;;;5032807;28;20369;-72
2023/04/23 02:16:29;;;;;;;;;;;333.50;2329.60;;;;;;5032995;28;19928;-72
2023/04/23 02:18:55;;;;;;;;;;;333.40;2329.60;;;;;;5032969;28;19909;-72
2023/04/23 02:21:23;;;;;;;;;;;333.20;2329.60;;;;;;5032609;28;19913;-71
2023/04/23 02:23:48;;;;;;;;;;;333.10;2329.60;;;;;;5032831;28;19905;-71
2023/04/23 02:26:14;;;;;;;;;;;333.10;2329.60;;;;;;5032733;28;20426;-71
2023/04/23 02:28:40;;;;;;;;;;;333.00;2329.60;;;;;;5032423;28;19905;-71
2023/04/23 02:31:05;;;;;;;;;;;333.10;2329.60;;;;;;5035697;28;20388;-71
2023/04/23 02:33:31;;;;;;;;;;;333.00;2329.60;;;;;;5036467;28;19925;-71
2023/04/23 02:35:56;;;;;;;;;;;332.90;2329.60;;;;;;5036445;28;19905;-71
2023/04/23 02:38:22;;;;;;;;;;;332.90;2329.60;;;;;;5036711;28;20250;-76
2023/04/23 02:40:47;;;;;;;;;;;332.90;2329.60;;;;;;5036690;28;20412;-72
2023/04/23 02:43:13;;;;;;;;;;;333.00;2329.60;;;;;;5036410;28;19949;-75
2023/04/23 02:45:39;;;;;;;;;;;333.00;2329.60;;;;;;5039419;28;20384;-71
2023/04/23 02:48:04;;;;;;;;;;;333.10;2329.60;;;;;;5039024;28;20349;-72
2023/04/23 02:50:30;;;;;;;;;;;332.90;2329.60;;;;;;5039451;28;20280;-71
2023/04/23 02:52:55;;;;;;;;;;;333.00;2329.60;;;;;;5036204;28;20383;-72
2023/04/23 02:55:21;;;;;;;;;;;333.00;2329.60;;;;;;5036136;28;19959;-71
2023/04/23 02:57:46;;;;;;;;;;;333.00;2329.60;;;;;;5036076;28;20312;-78
2023/04/23 03:00:13;;;;;;;;;;;332.90;2329.60;;;;;;5036042;28;19920;-72
2023/04/23 03:02:39;;;;;;;;;;;333.00;2329.60;;;;;;5035533;28;19971;-71
2023/04/23 03:05:06;;;;;;;;;;;332.90;2329.60;;;;;;5035302;28;19908;-72
2023/04/23 03:07:31;;;;;;;;;;;332.90;2329.60;;;;;;5035390;28;19948;-71
2023/04/23 03:09:57;;;;;;;;;;;332.90;2329.60;;;;;;5035328;28;19959;-71
2023/04/23 03:12:23;;;;;;;;;;;332.90;2329.60;;;;;;5035027;28;19905;-71
2023/04/23 03:14:48;;;;;;;;;;;333.00;2329.60;;;;;;5035211;28;19912;-71
2023/04/23 03:17:14;;;;;;;;;;;332.90;2329.60;;;;;;5035222;28;20250;-72
2023/04/23 03:19:39;;;;;;;;;;;333.00;2329.60;;;;;;5035212;28;20285;-71
2023/04/23 03:22:05;;;;;;;;;;;333.00;2329.60;;;;;;5034859;28;19912;-71
2023/04/23 03:24:33;;;;;;;;;;;333.10;2329.60;;;;;;5035018;28;20426;-71
2023/04/23 03:26:59;;;;;;;;;;;333.10;2329.60;;;;;;5034997;28;19905;-72
2023/04/23 03:29:25;;;;;;;;;;;333.20;2329.60;;;;;;5034710;28;20078;-72
2023/04/23 03:31:50;;;;;;;;;;;333.00;2329.60;;;;;;5034784;28;19916;-71
2023/04/23 03:34:16;;;;;;;;;;;333.00;2329.60;;;;;;5034966;28;19913;-71
2023/04/23 03:36:43;;;;;;;;;;;332.90;2329.60;;;;;;5034998;28;19911;-72
2023/04/23 03:39:09;;;;;;;;;;;332.90;2329.60;;;;;;5032034;28;19944;-71
2023/04/23 03:41:35;;;;;;;;;;;332.80;2329.60;;;;;;5033715;28;19951;-71
2023/04/23 03:44:00;;;;;;;;;;;332.80;2329.60;;;;;;5034644;28;19913;-81
2023/04/23 03:46:26;;;;;;;;;;;332.80;2329.60;;;;;;5034457;28;19940;-71
2023/04/23 03:48:51;;;;;;;;;;;308.10;2304.00;;;;;;5034617;28;19905;-82
2023/04/23 03:51:17;;;;;;;;;;;308.10;2304.00;;;;;;5034640;28;19961;-71
2023/04/23 03:53:43;;;;;;;;;;;332.80;2329.60;;;;;;5034443;28;19991;-71
2023/04/23 03:56:08;;;;;;;;;;;332.80;2329.60;;;;;;5034494;28;19972;-72
2023/04/23 03:58:34;;;;;;;;;;;332.80;2329.60;;;;;;5034716;28;19924;-72
2023/04/23 04:01:00;;;;;;;;;;;332.80;2329.60;;;;;;5034282;28;19913;-71
2023/04/23 04:03:25;;;;;;;;;;;332.80;2329.60;;;;;;5034319;28;20377;-72
2023/04/23 04:05:51;;;;;;;;;;;332.80;2329.60;;;;;;5034317;28;19905;-71
2023/04/23 04:08:16;;;;;;;;;;;332.80;2329.60;;;;;;5034496;28;19915;-72
2023/04/23 04:10:42;;;;;;;;;;;332.90;2329.60;;;;;;5034030;28;19904;-71
2023/04/23 04:13:07;;;;;;;;;;;332.90;2329.60;;;;;;5031391;28;19951;-71
2023/04/23 04:15:33;;;;;;;;;;;332.90;2329.60;;;;;;5025275;28;19904;-71
2023/04/23 04:17:59;;;;;;;;;;;332.90;2329.60;;;;;;5037895;28;19912;-71
2023/04/23 04:20:27;;;;;;;;;;;333.00;2329.60;;;;;;5039616;28;19920;-71
2023/04/23 04:22:53;;;;;;;;;;;333.00;2329.60;;;;;;5041422;28;20258;-71
2023/04/23 04:25:21;;;;;;;;;;;333.00;2329.60;;;;;;5025131;28;19911;-70
2023/04/23 04:27:46;;;;;;;;;;;332.90;2329.60;;;;;;5039498;28;19912;-71
2023/04/23 04:30:12;;;;;;;;;;;333.00;2329.60;;;;;;5028343;28;19909;-72
2023/04/23 04:32:39;;;;;;;;;;;333.00;2329.60;;;;;;5035890;28;19980;-71
2023/04/23 04:35:07;;;;;;;;;;;332.90;2329.60;;;;;;5029380;28;19909;-78
2023/04/23 04:37:34;;;;;;;;;;;332.90;2329.60;;;;;;5031780;28;19905;-71
2023/04/23 04:40:00;;;;;;;;;;;332.90;2329.60;;;;;;5034498;28;19920;-71
2023/04/23 04:42:26;;;;;;;;;;;332.90;2329.60;;;;;;5036516;28;20432;-71
2023/04/23 04:44:51;;;;;;;;;;;332.80;2329.60;;;;;;5026976;28;19933;-71
2023/04/23 04:47:17;;;;;;;;;;;332.80;2329.60;;;;;;5032270;28;19905;-71
2023/04/23 04:49:43;;;;;;;;;;;332.80;2329.60;;;;;;5027807;28;19912;-71
2023/04/23 04:52:09;;;;;;;;;;;332.80;2329.60;;;;;;5038174;28;19905;-71
2023/04/23 04:54:35;;;;;;;;;;;332.80;2329.60;;;;;;5026754;28;20281;-71
2023/04/23 04:57:01;;;;;;;;;;;332.90;2329.60;;;;;;5039897;28;19909;-71
2023/04/23 04:59:27;;;;;;;;;;;333.00;2329.60;;;;;;5034634;28;19952;-71
2023/04/23 05:01:52;;;;;;;;;;;333.40;2329.60;;;;;;5037238;28;19916;-71
2023/04/23 05:04:18;;;;;;;;;;;333.30;2329.60;;;;;;5029394;28;20343;-71
2023/04/23 05:06:43;;;;;;;;;;;333.40;2329.60;;;;;;5023560;28;19971;-71
2023/04/23 05:09:10;;;;;;;;;;;333.40;2329.60;;;;;;5038655;28;19971;-72
2023/04/23 05:11:35;;;;;;;;;;;333.50;2329.60;;;;;;5028089;28;19952;-71
2023/04/23 05:14:01;;;;;;;;;;;333.50;2329.60;;;;;;5036692;28;20384;-71
2023/04/23 05:16:26;;;;;;;;;;;333.50;2329.60;;;;;;5026260;28;19909;-71
2023/04/23 05:18:52;;;;;;;;;;;333.60;2329.60;;;;;;5033120;28;19905;-71
2023/04/23 05:21:18;;;;;;;;;;;333.70;2329.60;;;;;;5032257;28;19927;-71
2023/04/23 05:23:43;;;;;;;;;;;333.70;2329.60;;;;;;5068391;28;19904;-71
2023/04/23 05:26:10;;;;;;;;;;;358.40;2329.60;;;;;;5028263;28;19912;-71
2023/04/23 05:28:35;;;;;;;;;;;358.50;2329.60;;;;;;5035360;28;19908;-71
2023/04/23 05:31:01;;;;;;;;;;;358.50;2329.60;;;;;;5032157;28;19954;-71
2023/04/23 05:33:27;;;;;;;;;;;358.50;2329.60;;;;;;5068016;28;20007;-72
2023/04/23 05:35:53;;;;;;;;;;;358.50;2329.60;;;;;;5031457;28;19905;-72
2023/04/23 05:38:19;;;;;;;;;;;358.60;2329.60;;;;;;5038322;28;19905;-73
2023/04/23 05:40:45;;;;;;;;;;;358.70;2329.60;;;;;;5030303;28;20270;-71
2023/04/23 05:43:11;;;;;;;;;;;358.70;2329.60;;;;;;5040333;28;19905;-71
2023/04/23 05:45:36;;;;;;;;;;;358.70;2329.60;;;;;;5028082;28;19967;-71
2023/04/23 05:48:02;;;;;;;;;;;358.80;2329.60;;;;;;5029432;28;19905;-71
2023/04/23 05:50:28;;;;;;;;;;;358.90;2329.60;;;;;;5033405;28;19905;-71
2023/04/23 05:52:53;;;;;;;;;;;359.00;2329.60;;;;;;5026092;28;20024;-71
2023/04/23 05:55:19;;;;;;;;;;;359.00;2329.60;;;;;;5020553;28;19932;-72
2023/04/23 05:57:45;;;;;;;;;;;359.00;2329.60;;;;;;5020329;28;20824;-71
2023/04/23 06:00:10;;;;;;;;;;;359.10;2329.60;;;;;;5028370;28;19920;-73
2023/04/23 06:02:37;;;;;;;;;;;359.20;2329.60;;;;;;5028039;28;19909;-73
2023/04/23 06:05:03;;;;;;;;;;;359.20;2329.60;;;;;;5029612;28;19908;-73
2023/04/23 06:07:28;;;;;;;;;;;359.30;2329.60;;;;;;5026707;28;19928;-79
2023/04/23 06:09:54;;;;;;;;;;;384.00;2329.60;;;;;;5030061;28;19916;-72
2023/04/23 06:12:19;;;;;;;;;;;384.20;2329.60;;;;;;5045225;28;20358;-72
2023/04/23 06:14:45;;;;;;;;;;;384.40;2329.60;;;;;;5035897;28;19909;-73
2023/04/23 06:17:11;;;;;;;;;;;384.40;2329.60;;;;;;5030976;28;19905;-73
2023/04/23 06:19:36;;;;;;;;;;;384.50;2329.60;;;;;;5034279;28;20024;-73
2023/04/23 06:22:02;;;;;;;;;;;384.60;2329.60;;;;;;5028013;28;20320;-72
2023/04/23 06:24:27;;;;;;;;;;;384.60;2329.60;;;;;;5030870;28;20484;-73
2023/04/23 06:26:53;;;;;;;;;;;384.70;2329.60;;;;;;5025700;28;19997;-73
2023/04/23 06:29:18;;;;;;;;;;;384.90;2329.60;;;;;;5028549;28;19905;-73
2023/04/23 06:31:44;;;;;;;;;;;409.70;2355.20;;;;;;5020185;28;19921;-73
2023/04/23 06:34:09;;;;;;;;;;;409.70;2355.20;;;;;;5032073;28;19916;-72
2023/04/23 06:36:35;;;;;;;;;;;409.80;2355.20;;;;;;5027600;28;19905;-73
2023/04/23 06:39:00;;;;;;;;;;;409.90;2355.20;;;;;;5036100;28;19971;-74
2023/04/23 06:41:26;;;;;;;;;;;409.90;2355.20;;;;;;5025472;28;19916;-74
2023/04/23 06:43:52;;;;;;;;;;;410.00;2355.20;;;;;;5025163;28;19905;-73
2023/04/23 06:46:18;;;;;;;;;;;410.20;2355.20;;;;;;5021946;28;19909;-73
2023/04/23 06:48:43;;;;;;;;;;;410.30;2355.20;;;;;;5026451;28;20325;-73
2023/04/23 06:51:09;;;;;;;;;;;410.50;2355.20;;;;;;5030981;28;20349;-73
2023/04/23 06:53:35;;;;;;;;;;;435.20;2355.20;;;;;;5020617;28;20269;-72
2023/04/23 06:56:00;;;;;;;;;;;435.40;2355.20;;;;;;5024946;28;19905;-73
2023/04/23 06:58:30;;;;;;;;;;;435.60;2355.20;;;;;;5065223;28;20376;-72
2023/04/23 07:01:02;;;;;;;;;;;435.70;2355.20;;;;;;5069330;28;21793;-71
2023/04/23 07:03:28;;;;;;;;;;;435.90;2355.20;;;;;;5023883;28;19909;-72
2023/04/23 07:05:54;;;;;;;;;;;436.00;2355.20;;;;;;5025036;28;19937;-72
2023/04/23 07:08:20;;;;;;;;;;;460.80;2355.20;;;;;;5031527;28;19966;-72
2023/04/23 07:10:46;;;;;;;;;;;460.90;2355.20;;;;;;5022403;28;19995;-72
2023/04/23 07:13:11;;;;;;;;;;;461.10;2304.00;;;;;;5019028;28;19927;-71
2023/04/23 07:15:37;;;;;;;;;;;461.20;2150.40;;;;;;5034253;28;19905;-71
2023/04/23 07:18:03;;;;;;;;;;;461.20;2022.40;;;;;;5024837;28;20230;-73
2023/04/23 07:20:29;;;;;;;;;;;461.20;2022.40;;;;;;5031415;28;19983;-73
2023/04/23 07:22:54;;;;;;;;;;;461.30;2022.40;;;;;;5032494;28;20337;-72
2023/04/23 07:25:21;;;;;;;;;;;461.40;2022.40;;;;;;5037029;28;19905;-72
2023/04/23 07:27:47;;;;;;;;;;;461.40;2022.40;;;;;;5033188;28;19906;-72
2023/04/23 07:30:13;;;;;;;;;;;461.40;2022.40;;;;;;5024227;28;19905;-73
2023/04/23 07:32:38;;;;;;;;;;;461.60;1971.20;;;;;;5021990;28;20024;-71
2023/04/23 07:35:04;;;;;;;;;;;461.50;2048.00;;;;;;5038897;28;19939;-71
2023/04/23 07:37:30;;;;;;;;;;;486.40;2099.20;;;;;;5031820;28;19905;-71
2023/04/23 07:39:55;;;;;;;;;;;486.50;1996.80;;;;;;5034988;28;19913;-71
2023/04/23 07:42:21;;;;;;;;;;;486.50;1920.00;;;;;;5034850;28;19912;-72
2023/04/23 07:44:46;;;;;;;;;;;486.50;1920.00;;;;;;5027651;28;19905;-71
2023/04/23 07:47:12;;;;;;;;;;;486.50;1920.00;;;;;;5030761;28;19906;-72
2023/04/23 07:49:37;;;;;;;;;;;486.60;1843.20;;;;;;5026853;28;19912;-71
2023/04/23 07:52:03;;;;;;;;;;;486.60;1843.20;;;;;;5028350;28;19904;-71
2023/04/23 07:54:28;;;;;;;;;;;486.70;1792.00;;;;;;5035237;28;19912;-71
2023/04/23 07:56:54;;;;;;;;;;;486.80;1792.00;;;;;;5045665;28;19908;-71
2023/04/23 07:59:19;;;;;;;;;;;486.70;1766.40;;;;;;5025493;28;19959;-72
2023/04/23 08:01:45;;;;;;;;;;;486.80;1740.80;;;;;;5029639;28;19999;-72
2023/04/23 08:04:11;;;;;;;;;;;486.90;1766.40;;;;;;5026266;28;19932;-72
2023/04/23 08:06:36;;;;;;;;;;;486.90;1792.00;;;;;;5024434;28;19913;-71
2023/04/23 08:09:05;;;;;;;;;;;487.00;1817.60;;;;;;5023505;28;19916;-72
2023/04/23 08:11:31;;;;;;;;;;;487.20;1868.80;;;;;;5020438;28;20262;-74
2023/04/23 08:13:56;;;;;;;;;;;487.30;1792.00;;;;;;5038500;28;20012;-71
2023/04/23 08:16:22;;;;;;;;;;;512.00;1792.00;;;;;;5022820;28;19992;-71
2023/04/23 08:18:48;;;;;;;;;;;487.30;1715.20;;;;;;5038291;28;19910;-72
2023/04/23 08:21:13;;;;;;;;;;;487.20;1715.20;;;;;;5021932;28;19963;-72
2023/04/23 08:23:39;;;;;;;;;;;487.30;1766.40;;;;;;5037284;28;19905;-72
2023/04/23 08:26:04;;;;;;;;;;;512.00;1740.80;;;;;;5045321;28;19909;-72
2023/04/23 08:28:30;;;;;;;;;;;512.10;1689.60;;;;;;5027665;28;19905;-71
2023/04/23 08:30:56;;;;;;;;;;;512.30;1715.20;;;;;;5037996;28;19965;-73
2023/04/23 08:33:21;;;;;;;;;;;512.10;1638.40;;;;;;5046226;28;19920;-71
2023/04/23 08:35:47;;;;;;;;;;;512.20;1664.00;;;;;;5041517;28;19912;-76
2023/04/23 08:38:12;;;;;;;;;;;512.30;1638.40;;;;;;5031206;28;20027;-72
2023/04/23 08:40:38;;;;;;;;;;;512.40;1638.40;;;;;;5029045;28;20254;-72
2023/04/23 08:43:18;;;;;;;;;;;512.70;1689.60;;;;;;5035206;28;19905;-71
2023/04/23 08:45:46;;;;;;;;;;;512.60;1612.80;;;;;;5031577;28;19929;-76
2023/04/23 08:48:13;;;;;;;;;;;512.50;1561.60;;;;;;5036298;28;19984;-72
2023/04/23 08:50:41;;;;;;;;;;;512.70;1612.80;;;;;;5029220;28;19905;-71
2023/04/23 08:53:07;;;;;;;;;;;512.80;1561.60;;;;;;5037478;28;19906;-72
2023/04/23 08:55:33;;;;;;;;;;;512.80;1510.40;;;;;;5032830;28;19912;-73
2023/04/23 08:57:59;;;;;;;;;;;512.80;1510.40;;;;;;5035298;28;19905;-73
2023/04/23 09:00:25;;;;;;;;;;;512.90;1484.80;;;;;;5023836;28;20278;-73
2023/04/23 09:02:51;;;;;;;;;;;512.90;1510.40;;;;;;5034453;28;19962;-75
2023/04/23 09:05:16;;;;;;;;;;;537.60;1561.60;;;;;;5026067;28;19905;-74
2023/04/23 09:07:42;;;;;;;;;;;537.90;1612.80;;;;;;5030924;28;19944;-73
2023/04/23 09:10:10;;;;;;;;;;;537.90;1561.60;;;;;;5025136;28;19999;-75
2023/04/23 09:12:36;;;;;;;;;;;538.00;1536.00;;;;;;5036490;28;19912;-73
2023/04/23 09:15:09;;;;;;;;;;;538.10;1561.60;;;;;;5033937;28;19905;-73
2023/04/23 09:17:36;;;;;;;;;;;538.30;1561.60;;;;;;5035354;28;20275;-75
2023/04/23 09:20:02;;;;;;;;;;;538.40;1561.60;;;;;;5029353;28;19913;-74
2023/04/23 09:22:40;;;;;;;;;;;538.50;1510.40;;;;;;5036183;28;19916;-76
2023/04/23 09:25:06;;;;;;;;;;;563.20;1561.60;;;;;;5031999;28;19911;-76
2023/04/23 09:27:32;;;;;;;;;;;563.30;1536.00;;;;;;5034293;28;20028;-73
2023/04/23 09:30:02;;;;;;;;;;;563.20;1484.80;;;;;;5031032;28;19948;-73
2023/04/23 09:32:32;;;;;;;;;;;563.20;1484.80;;;;;;5026252;28;19925;-74
2023/04/23 09:34:57;;;;;;;;;;;563.40;1510.40;;;;;;5030013;28;19956;-74
2023/04/23 09:37:26;;;;;;;;;;;563.60;1510.40;;;;;;5034478;28;19909;-74
2023/04/23 09:39:55;;;;;;;;;;;563.70;1459.20;;;;;;5034491;28;19920;-74
2023/04/23 09:42:25;;;;;;;;;;;563.80;1433.60;;;;;;5034950;28;19905;-73
2023/04/23 09:45:05;;;;;;;;;;;563.80;1433.60;;;;;;5016335;28;19995;-73
2023/04/23 09:47:31;;;;;;;;;;;563.90;1408.00;;;;;;5017242;28;19912;-73
2023/04/23 09:49:57;;;;;;;;;;;564.00;1408.00;;;;;;5023814;28;19997;-73
2023/04/23 09:52:23;;;;;;;;;;;564.10;1408.00;;;;;;5030249;28;19962;-74
2023/04/23 09:54:49;;;;;;;;;;;588.90;1356.80;;;;;;5026209;28;19959;-75
2023/04/23 09:57:15;;;;;;;;;;;589.10;1356.80;;;;;;5040172;28;19916;-76
2023/04/23 09:59:41;;;;;;;;;;;589.20;1331.20;;;;;;5035319;28;19909;-74
2023/04/23 10:02:08;;;;;;;;;;;589.50;1280.00;;;;;;5024692;28;20116;-74
2023/04/23 10:04:34;;;;;;;;;;;589.60;1305.60;;;;;;5029363;28;19913;-77
2023/04/23 10:07:01;;;;;;;;;;;589.60;1280.00;;;;;;5034723;28;19999;-73
2023/04/23 10:09:28;;;;;;;;;;;614.50;1305.60;;;;;;5027180;28;19909;-74
2023/04/23 10:11:55;;;;;;;;;;;589.50;1254.40;;;;;;5017689;28;19912;-74
2023/04/23 10:14:21;;;;;;;;;;;589.70;1203.20;;;;;;5022884;28;19958;-78
2023/04/23 10:16:49;;;;;;;;;;;614.60;1177.60;;;;;;5037705;28;19905;-74
2023/04/23 10:19:16;;;;;;;;;;;614.80;1177.60;;;;;;5025859;28;20393;-75
2023/04/23 10:21:43;;;;;;;;;;;615.10;1203.20;;;;;;5032806;28;19905;-74
2023/04/23 10:24:11;;;;;;;;;;;615.10;1203.20;;;;;;5037248;28;19911;-77
2023/04/23 10:26:38;;;;;;;;;;;640.00;1152.00;;;;;;5032269;28;19905;-77
2023/04/23 10:29:06;;;;;;;;;;;615.30;1152.00;;;;;;5027848;28;20273;-75
2023/04/23 10:31:31;;;;;;;;;;;640.10;1126.40;;;;;;5026611;28;20349;-74
2023/04/23 10:33:57;;;;;;;;;;;640.20;1100.80;;;;;;5034530;28;19912;-74
2023/04/23 10:36:24;;;;;;;;;;;640.40;1024.00;;;;;;5030836;28;20007;-75
2023/04/23 10:38:50;;;;;;;;;;;640.60;1075.20;;;;;;5035702;28;19913;-76
2023/04/23 10:41:16;;;;;;;;;;;640.50;998.40;;;;;;5030062;28;19914;-74
2023/04/23 10:43:42;;;;;;;;;;;640.70;1024.00;;;;;;5029783;28;19905;-75
2023/04/23 10:46:26;;;;;;;;;;;640.90;1100.80;;;;;;5018751;28;19905;-75
2023/04/23 10:49:15;;;;;;;;;;;640.70;1049.60;;;;;;5026677;28;19909;-75
2023/04/23 10:51:44;;;;;;;;;;;640.70;998.40;;;;;;5038175;28;20285;-75
2023/04/23 10:54:10;;;;;;;;;;;665.60;947.20;;;;;;5026743;28;19928;-75
2023/04/23 10:56:39;;;;;;;;;;;665.60;972.80;;;;;;5032323;28;19905;-74
2023/04/23 10:59:06;;;;;;;;;;;640.90;921.60;;;;;;5033542;28;19915;-75
2023/04/23 11:01:32;;;;;;;;;;;640.90;921.60;;;;;;5041775;28;19945;-75
2023/04/23 11:03:58;;;;;;;;;;;640.90;972.80;;;;;;5028645;28;19952;-75
2023/04/23 11:06:42;;;;;;;;;;;665.60;947.20;;;;;;5043813;28;19928;-73
2023/04/23 11:09:30;;;;;;;;;;;665.60;947.20;;;;;;5037215;28;19906;-74
2023/04/23 11:11:57;;;;;;;;;;;665.80;896.00;;;;;;5031114;28;20086;-73
2023/04/23 11:14:42;;;;;;;;;;;666.00;896.00;;;;;;5029363;28;20047;-74
2023/04/23 11:17:10;;;;;;;;;;;666.30;896.00;;;;;;5036054;28;20384;-76
2023/04/23 11:19:36;;;;;;;;;;;640.40;947.20;;;;;;5025845;28;19920;-73
2023/04/23 11:22:03;;;;;;;;;;;640.20;998.40;;;;;;5037367;28;20058;-75
2023/04/23 11:24:30;;;;;;;;;;;640.10;1024.00;;;;;;5039784;28;19995;-73
2023/04/23 11:26:56;;;;;;;;;;;615.20;1024.00;;;;;;5037607;28;19928;-73
2023/04/23 11:29:22;;;;;;;;;;;640.00;1024.00;;;;;;5032397;28;19950;-74
2023/04/23 11:31:48;;;;;;;;;;;614.90;998.40;;;;;;5023274;28;19924;-73
2023/04/23 11:34:15;;;;;;;;;;;614.80;998.40;;;;;;5039321;28;19909;-73
2023/04/23 11:36:41;;;;;;;;;;;615.00;1024.00;;;;;;5033114;28;20265;-74
2023/04/23 11:39:08;;;;;;;;;;;640.50;1024.00;;;;;;5039079;28;19917;-75
2023/04/23 11:41:34;;;;;;;;;;;665.60;1024.00;;;;;;5031479;28;19915;-74
2023/04/23 11:43:59;;;;;;;;;;;665.90;998.40;;;;;;5040351;28;19905;-76
2023/04/23 11:46:25;;;;;;;;;;;665.60;972.80;;;;;;5024784;28;19944;-74
2023/04/23 11:48:50;;;;;;;;;;;665.90;947.20;;;;;;5030227;28;19924;-74
2023/04/23 11:51:16;;;;;;;;;;;666.30;947.20;;;;;;5025793;28;19909;-74
2023/04/23 11:53:48;;;;;;;;;;;666.30;896.00;;;;;;5033157;28;19987;-74
2023/04/23 11:56:16;;;;;;;;;;;691.20;896.00;;;;;;5036243;28;19996;-74
2023/04/23 11:58:42;;;;;;;;;;;691.30;896.00;;;;;;5035109;28;20113;-74
2023/04/23 12:01:10;;;;;;;;;;;691.20;947.20;;;;;;5034514;28;20012;-74
2023/04/23 12:03:36;;;;;;;;;;;666.40;921.60;;;;;;5029864;28;19909;-73
2023/04/23 12:06:01;;;;;;;;;;;691.30;870.40;;;;;;5028935;28;19912;-73
2023/04/23 12:08:31;;;;;;;;;;;691.30;844.80;;;;;;5040547;28;19908;-74
2023/04/23 12:11:01;;;;;;;;;;;691.40;870.40;;;;;;5027338;28;20385;-73
2023/04/23 12:13:29;;;;;;;;;;;691.60;844.80;;;;;;5033446;28;20317;-74
2023/04/23 12:15:56;;;;;;;;;;;666.50;921.60;;;;;;5034865;28;19916;-73
2023/04/23 12:18:39;;;;;;;;;;;691.30;921.60;;;;;;5028922;28;19905;-73
2023/04/23 12:21:05;;;;;;;;;;;666.50;896.00;;;;;;5037649;28;19916;-73
2023/04/23 12:23:32;;;;;;;;;;;666.50;870.40;;;;;;5037241;28;19905;-73
2023/04/23 12:25:57;;;;;;;;;;;691.40;870.40;;;;;;5030139;28;20272;-73
2023/04/23 12:28:23;;;;;;;;;;;691.20;921.60;;;;;;5029458;28;19910;-74
2023/04/23 12:30:49;;;;;;;;;;;691.20;896.00;;;;;;5038228;28;19944;-74
2023/04/23 12:33:15;;;;;;;;;;;666.40;921.60;;;;;;5026687;28;19925;-73
2023/04/23 12:35:50;;;;;;;;;;;691.30;896.00;;;;;;5024800;28;19924;-73
2023/04/23 12:38:24;;;;;;;;;;;691.40;870.40;;;;;;5037380;28;20365;-73
2023/04/23 12:40:51;;;;;;;;;;;691.30;896.00;;;;;;5032863;28;19913;-73
2023/04/23 12:43:16;;;;;;;;;;;691.40;921.60;;;;;;5034508;28;20357;-73
2023/04/23 12:45:42;;;;;;;;;;;691.60;896.00;;;;;;5028116;28;19912;-74
2023/04/23 12:48:07;;;;;;;;;;;691.70;844.80;;;;;;5027567;28;20317;-74
2023/04/23 12:50:33;;;;;;;;;;;691.80;844.80;;;;;;5032829;28;19904;-74
2023/04/23 12:52:58;;;;;;;;;;;692.10;819.20;;;;;;5026112;28;19913;-73
2023/04/23 12:55:24;;;;;;;;;;;692.10;819.20;;;;;;5030593;28;19946;-74
2023/04/23 12:57:50;;;;;;;;;;;691.90;819.20;;;;;;5033852;28;19951;-75
2023/04/23 13:00:15;;;;;;;;;;;692.00;793.60;;;;;;5040271;28;20277;-74
2023/04/23 13:02:41;;;;;;;;;;;691.80;819.20;;;;;;5041996;28;19951;-74
2023/04/23 13:05:06;;;;;;;;;;;692.00;793.60;;;;;;5028432;28;20015;-74
2023/04/23 13:07:32;;;;;;;;;;;691.80;870.40;;;;;;5032414;28;19909;-73
2023/04/23 13:09:58;;;;;;;;;;;691.80;870.40;;;;;;5035465;28;19905;-74
2023/04/23 13:12:24;;;;;;;;;;;691.90;793.60;;;;;;5031474;28;19999;-73
2023/04/23 13:14:49;;;;;;;;;;;691.90;819.20;;;;;;5032516;28;19911;-73
2023/04/23 13:17:15;;;;;;;;;;;691.80;819.20;;;;;;5031048;28;20369;-74
2023/04/23 13:19:40;;;;;;;;;;;692.00;793.60;;;;;;5032843;28;19921;-73
2023/04/23 13:22:06;;;;;;;;;;;691.80;793.60;;;;;;5033691;28;19905;-75
2023/04/23 13:24:32;;;;;;;;;;;691.80;793.60;;;;;;5037200;28;19909;-73
2023/04/23 13:26:58;;;;;;;;;;;691.90;793.60;;;;;;5043346;28;19999;-74
2023/04/23 13:29:26;;;;;;;;;;;691.80;793.60;;;;;;5036285;28;19952;-73
2023/04/23 13:31:52;;;;;;;;;;;691.90;793.60;;;;;;5022442;28;19921;-75
2023/04/23 13:34:17;;;;;;;;;;;691.80;819.20;;;;;;5034902;28;19909;-72
2023/04/23 13:36:43;;;;;;;;;;;691.70;819.20;;;;;;5035642;28;19995;-73